Airfield :
LOGIN :

Register | Disclaimer

   EN    FR    IT 

 










Legend :    VFR   Marginal VFR   IFR   Intensive IFR   Very Intensive IFR
Visi :
Ceiling :
>= 8 km
>= 3000ft
5 to 8 km
1000 to 3000 ft
1500m to 5 km
500 to 1000 ft
800 to 1500m
200 to 500 ft
< 800m
< 200 ft
Symbols :   Thunderstorms  Fog  Heavy snow  Heavy precipitations  Wind > 20 kt
SIGMETs :     Misc.  Thunderstorms  Icing  Turbulence  Mountain Waves  Volcanic Ashes







- Airport Elevation : 38 ft
- IATA code : BOH
- Download approach charts


EGHH - Bournemouth

CURRENT METAR :
  • 142120Z 20005KT 9999 FEW010 BKN036 12/10 Q1020

EXPIRED METARs :
  • 142050Z 20005KT 9999 FEW009 BKN020 13/11 Q1020
  • 142020Z 18004KT 9999 SCT009 BKN025 13/12 Q1020
  • 141950Z 15004KT 9999 FEW011 BKN034 13/11 Q1020
  • 141920Z 14005KT 9999 FEW016 BKN033 13/11 Q1020
  • 141850Z 14004KT 9999 FEW016 BKN034 13/11 Q1020

TAF TAF EGHH
Valid from the 14 at 21:00 until the 15 at 06:00 UTC


142002Z 1421/1506 15003KT 9999 SCT015
TEMPO 1421/1506 BKN012
PROB30
TEMPO 1421/1506 3000 BR BKN008
ATIS : +44 1202 364 151
Met : +44 1202 364 158 (TAF)
No reported NOTAMs for that airfield.
1 SIGMET reported for the London FIR (EGTT) :
 
Severe mountain waves
EGTT SIGMET 06 VALID 141930/142330 EGRR
EGTT LONDON FIR SEV MTW FCST N OF LINE N5206 W00557 - N5333 E00342 FL020/320 MOV N 10KT WKN=



MET'MAP, your aeronautical weather chart ! - Copyright ORBIFLY December 2007 - Disclaimer

ORBIFLY MET'MAP TEAM :

Programming & Development : Alexandra Zaïnal
Concept & Development : Baudouin d'Aumeries
Co-Development & Prog : Marc-Olivier Méhu
Technical & hardware support : Manuel Goepfert

Contact : metmap@orbifly.com




SOURCES & CREDITS :

   NOAA